Granton, WI (54436)

9:09 PM CST on December 05, 2016 (GMT -0600)
Marshfield Municipal | | Change Station

Elev 1276 ft 44.64 °N, 90.19 °W | Updated 15 minutes ago

Overcast
Overcast
32 °F
Feels Like 23 °F
N
12
Wind Variable Wind from SSE

Today
High -- | Low -- °F
--% Chance of Precip.
Yesterday
High -- | Low -- °F
Precip. -- in
Pressure 29.86 in
Visibility 6.0 miles
Clouds Scattered Clouds 700 ft
Overcast 9000 ft
Windchill 23 °F
Dew Point 29 °F
Humidity 88%
Rainfall 0.00 in
Snow Depth Not available.
7:23 AM 4:21 PM
Waxing Crescent, 37% visible
METAR KMFI 060254Z AUTO 15010KT 6SM BR SCT007 OVC090 00/M02 A2981 RMK AO2 SLP109 T00001017 56011
Pressure 29.86 in
Visibility 6.0 miles
Clouds Scattered Clouds 700 ft
Overcast 9000 ft
Windchill 23 °F
Dew Point 29 °F
Humidity 88%
Rainfall 0.00 in
Snow Depth Not available.
7:23 AM 4:21 PM
Waxing Crescent, 37% visible
METAR KMFI 060254Z AUTO 15010KT 6SM BR SCT007 OVC090 00/M02 A2981 RMK AO2 SLP109 T00001017 56011

10-Day Weather Forecast

Almanac

Astronomy

Dec. 05, 2016 Rise Set
Actual Time
Civil Twilight
Nautical Twilight
Astronomical Twilight
Moon
Length of Visible Light
Length of Day
Tomorrow will be .
, % of the Moon is Illuminated

Today's Extremes

State Highs State Lows

Community

WunderPhotos

Upload Photos

1,955,914 photos uploaded!

WunderBlog® & News

Nearby

Air Quality

  Air Quality AQ Index Pollutant
Not available.

Snow Depth

Station Depth Elevation

Earthquake Activity

City Distance Mag. Time & Date
Minimum magnitude displayed is 2.5.

Coastal Water Temperatures

Place Temperature

Stations

Nearby Weather Stations

Station Location Temp. Windchill Dew Point Humidity Wind Precip. Elev Updated Type
                   

Watches & Warnings

There are currently no watches in effect.